createdAt,value
2023-02-14T00:03:41.595Z,4.30
2023-02-14T00:08:45.656Z,3.03
2023-02-14T00:14:08.158Z,2.78
2023-02-14T00:19:14.447Z,2.47
2023-02-14T00:24:20.964Z,2.78
2023-02-14T00:29:27.972Z,3.22
2023-02-14T00:34:30.801Z,2.85
2023-02-14T00:39:34.528Z,2.15
2023-02-14T00:44:38.156Z,2.72
2023-02-14T00:49:40.761Z,2.35
2023-02-14T00:54:43.535Z,2.67
2023-02-14T00:59:46.136Z,3.50
2023-02-14T01:04:48.722Z,2.90
2023-02-14T01:09:51.440Z,2.88
2023-02-14T01:14:54.233Z,3.15
2023-02-14T01:19:56.856Z,3.17
2023-02-14T01:24:59.463Z,3.28
2023-02-14T01:30:02.268Z,3.90
2023-02-14T01:35:06.784Z,3.47
2023-02-14T01:40:12.298Z,3.53
2023-02-14T01:45:22.230Z,3.72
2023-02-14T01:50:32.430Z,3.78
2023-02-14T01:55:42.156Z,2.95
2023-02-14T02:01:00.742Z,3.45
2023-02-14T02:11:13.738Z,4.25
2023-02-14T02:38:21.219Z,5.03
2023-02-14T02:43:45.552Z,5.32
2023-02-14T02:54:18.208Z,5.03
2023-02-14T02:59:28.593Z,5.80
2023-02-14T03:04:55.629Z,4.25
2023-02-14T03:10:18.789Z,4.28
2023-02-14T03:15:47.243Z,4.50
2023-02-14T03:20:57.081Z,3.22
2023-02-14T03:26:20.408Z,4.72
2023-02-14T03:37:01.498Z,4.00
2023-02-14T03:42:11.292Z,4.28
2023-02-14T03:47:19.031Z,2.30
2023-02-14T03:52:23.637Z,3.40
2023-02-14T03:57:35.309Z,3.63
2023-02-14T04:02:46.727Z,3.42
2023-02-14T04:07:53.257Z,3.55
2023-02-14T04:12:55.974Z,2.55
2023-02-14T04:18:18.381Z,3.20
2023-02-14T04:23:20.900Z,3.63
2023-02-14T04:28:23.555Z,2.47
2023-02-14T04:33:26.196Z,3.60
2023-02-14T04:38:28.913Z,3.72
2023-02-14T04:43:31.743Z,2.88
2023-02-14T04:48:34.625Z,3.38
2023-02-14T04:53:40.397Z,4.57
2023-02-14T04:58:43.025Z,4.35
2023-02-14T05:03:45.576Z,3.25
2023-02-14T05:08:48.349Z,2.72
2023-02-14T05:13:52.817Z,3.45
2023-02-14T05:18:55.341Z,3.60
2023-02-14T05:23:57.864Z,3.35
2023-02-14T05:29:00.500Z,3.38
2023-02-14T05:34:03.230Z,4.07
2023-02-14T05:39:05.922Z,3.22
2023-02-14T05:44:08.618Z,2.65
2023-02-14T05:49:11.631Z,2.20
2023-02-14T05:54:14.278Z,3.90
2023-02-14T05:59:17.225Z,3.80
2023-02-14T06:04:19.988Z,3.55
2023-02-14T06:09:22.828Z,2.92
2023-02-14T06:14:25.583Z,3.15
2023-02-14T06:19:28.327Z,3.00
2023-02-14T06:24:31.124Z,3.30
2023-02-14T06:29:33.786Z,2.88
2023-02-14T06:34:36.640Z,3.95
2023-02-14T06:39:39.385Z,3.08
2023-02-14T06:44:42.041Z,3.70
2023-02-14T06:49:44.773Z,3.13
2023-02-14T06:54:47.485Z,3.55
2023-02-14T06:59:50.971Z,3.75
2023-02-14T07:04:55.129Z,4.53
2023-02-14T07:09:58.268Z,4.93
2023-02-14T07:15:05.514Z,3.63
2023-02-14T07:20:13.783Z,4.32
2023-02-14T07:25:17.940Z,4.82
2023-02-14T07:30:20.854Z,5.65
2023-02-14T07:35:23.707Z,5.57
2023-02-14T07:40:26.298Z,5.03
2023-02-14T07:45:29.093Z,6.50
2023-02-14T07:50:32.120Z,7.00
2023-02-14T07:55:35.685Z,6.57
2023-02-14T08:00:38.375Z,6.72
2023-02-14T08:05:41.446Z,6.28
2023-02-14T08:10:44.048Z,5.22
2023-02-14T08:16:09.054Z,6.70
2023-02-14T08:21:11.964Z,6.50
2023-02-14T08:26:15.226Z,6.60
2023-02-14T08:31:35.995Z,6.00
2023-02-14T08:36:39.096Z,5.57
2023-02-14T08:41:41.758Z,4.97
2023-02-14T08:46:45.589Z,5.68
2023-02-14T08:51:48.639Z,5.38
2023-02-14T08:56:51.376Z,6.25
2023-02-14T09:01:56.591Z,5.93
2023-02-14T09:06:59.666Z,4.35
2023-02-14T09:12:05.655Z,5.97
2023-02-14T09:17:08.390Z,5.60
2023-02-14T09:22:12.236Z,5.03
2023-02-14T09:27:15.000Z,5.50
2023-02-14T09:32:18.831Z,5.63
2023-02-14T09:37:21.621Z,5.47
2023-02-14T09:58:56.155Z,6.35
2023-02-14T10:04:29.982Z,5.43
2023-02-14T10:14:44.548Z,5.30
2023-02-14T10:25:06.186Z,6.35
2023-02-14T10:30:21.542Z,6.68
2023-02-14T10:46:52.690Z,5.00
2023-02-14T10:52:04.391Z,6.43
2023-02-14T11:02:32.363Z,4.60
2023-02-14T11:07:35.247Z,5.40
2023-02-14T11:12:40.893Z,4.88
2023-02-14T11:17:43.658Z,4.90
2023-02-14T11:22:47.050Z,4.72
2023-02-14T11:28:02.075Z,5.10
2023-02-14T11:33:05.598Z,4.78
2023-02-14T11:38:35.932Z,4.88
2023-02-14T11:43:41.375Z,5.03
2023-02-14T11:48:56.577Z,4.88
2023-02-14T11:54:04.789Z,5.80
2023-02-14T11:59:07.708Z,4.70
2023-02-14T12:04:26.632Z,4.85
2023-02-14T12:09:31.700Z,4.82
2023-02-14T12:14:35.726Z,4.65
2023-02-14T12:19:49.357Z,4.45
2023-02-14T12:25:15.857Z,4.57
2023-02-14T12:30:22.274Z,4.32
2023-02-14T12:57:20.794Z,4.35
2023-02-14T13:02:53.039Z,4.32
2023-02-14T13:23:41.219Z,4.82
2023-02-14T13:28:52.126Z,4.15
2023-02-14T13:34:25.803Z,4.65
2023-02-14T13:39:40.977Z,3.67
2023-02-14T13:50:02.423Z,5.05
2023-02-14T13:55:10.372Z,3.63
2023-02-14T14:16:36.819Z,3.15
2023-02-14T14:21:45.107Z,2.88
2023-02-14T14:32:19.664Z,3.55
2023-02-14T14:37:25.515Z,3.72
2023-02-14T14:42:37.530Z,3.75
2023-02-14T14:47:45.499Z,3.80
2023-02-14T14:52:53.489Z,4.25
2023-02-14T14:57:58.704Z,3.55
2023-02-14T15:03:18.274Z,4.13
2023-02-14T15:18:46.845Z,5.07
2023-02-14T15:23:54.193Z,5.50
2023-02-14T15:29:01.284Z,5.28
2023-02-14T15:34:05.524Z,5.65
2023-02-14T15:39:14.420Z,5.05
2023-02-14T15:44:21.547Z,5.15
2023-02-14T15:49:36.956Z,5.43
2023-02-14T15:54:45.112Z,5.22
2023-02-14T15:59:48.732Z,4.50
2023-02-14T16:04:51.478Z,5.00
2023-02-14T16:10:22.919Z,3.72
2023-02-14T16:15:28.252Z,4.40
2023-02-14T16:25:42.568Z,3.92
2023-02-14T16:30:47.955Z,3.97
2023-02-14T16:35:51.051Z,3.63
2023-02-14T16:40:55.590Z,3.78
2023-02-14T16:45:58.967Z,3.30
2023-02-14T16:51:02.814Z,3.67
2023-02-14T16:56:06.049Z,3.35
2023-02-14T17:01:08.788Z,2.97
2023-02-14T17:06:15.899Z,3.10
2023-02-14T17:11:19.120Z,3.60
2023-02-14T17:16:23.186Z,3.00
2023-02-14T17:21:26.924Z,2.72
2023-02-14T17:26:29.510Z,2.80
2023-02-14T17:31:32.287Z,3.42
2023-02-14T17:36:34.972Z,2.58
2023-02-14T17:41:37.616Z,2.80
2023-02-14T17:46:40.993Z,3.38
2023-02-14T17:51:43.674Z,2.63
2023-02-14T17:56:46.676Z,2.45
2023-02-14T18:01:49.458Z,2.55
2023-02-14T18:06:52.526Z,2.50
2023-02-14T18:11:55.625Z,2.65
2023-02-14T18:16:58.275Z,2.47
2023-02-14T18:22:01.127Z,2.20
2023-02-14T18:27:06.193Z,2.53
2023-02-14T18:32:09.314Z,2.50
2023-02-14T18:37:13.641Z,1.90
2023-02-14T18:42:16.663Z,2.58
2023-02-14T18:47:19.463Z,2.50
2023-02-14T18:52:22.173Z,2.35
2023-02-14T18:57:25.930Z,2.20
2023-02-14T19:02:31.979Z,2.33
2023-02-14T19:07:38.290Z,2.20
2023-02-14T19:12:43.260Z,1.95
2023-02-14T19:17:45.972Z,1.85
2023-02-14T19:22:48.598Z,2.05
2023-02-14T19:27:51.397Z,2.20
2023-02-14T19:32:55.303Z,2.42
2023-02-14T19:37:59.120Z,2.13
2023-02-14T19:43:01.814Z,1.70
2023-02-14T19:48:04.486Z,1.60
2023-02-14T19:53:07.060Z,1.48
2023-02-14T19:58:10.547Z,1.90
2023-02-14T20:03:13.979Z,2.13
2023-02-14T20:08:17.870Z,2.10
2023-02-14T20:13:20.413Z,2.10
2023-02-14T20:18:23.007Z,2.28
2023-02-14T20:23:25.667Z,1.75
2023-02-14T20:28:28.283Z,2.00
2023-02-14T20:33:30.874Z,2.17
2023-02-14T20:38:34.806Z,2.10
2023-02-14T20:43:38.476Z,1.80
2023-02-14T20:48:41.135Z,2.45
2023-02-14T20:53:44.601Z,2.22
2023-02-14T20:58:47.254Z,2.33
2023-02-14T21:03:52.178Z,2.30
2023-02-14T21:08:56.584Z,2.45
2023-02-14T21:14:00.841Z,2.70
2023-02-14T21:19:04.287Z,2.00
2023-02-14T21:24:11.561Z,2.50
2023-02-14T21:29:14.418Z,2.95
2023-02-14T21:34:17.268Z,2.90
2023-02-14T21:39:21.195Z,2.95
2023-02-14T21:44:43.790Z,2.72
2023-02-14T21:50:06.225Z,2.13
2023-02-14T21:55:08.912Z,2.97
2023-02-14T22:00:12.078Z,2.70
2023-02-14T22:05:14.689Z,2.30
2023-02-14T22:10:17.464Z,2.97
2023-02-14T22:15:20.017Z,3.55
2023-02-14T22:20:22.547Z,2.35
2023-02-14T22:25:25.845Z,2.90
2023-02-14T22:30:28.552Z,2.50
2023-02-14T22:35:32.097Z,3.08
2023-02-14T22:40:34.934Z,3.28
2023-02-14T22:45:37.692Z,2.20
2023-02-14T22:50:40.225Z,3.10
2023-02-14T22:55:42.767Z,2.58
2023-02-14T23:00:45.609Z,2.40
2023-02-14T23:05:48.174Z,2.80
2023-02-14T23:10:50.856Z,2.80
2023-02-14T23:16:13.319Z,3.00
2023-02-14T23:21:35.784Z,2.67
2023-02-14T23:26:38.414Z,2.72
2023-02-14T23:31:41.084Z,3.40
2023-02-14T23:36:43.671Z,3.45
2023-02-14T23:41:47.383Z,2.78
2023-02-14T23:46:52.142Z,3.72
2023-02-14T23:51:55.836Z,3.88
2023-02-14T23:56:58.916Z,4.05
